Huvudsida
METAR-TAF:

METAR-TAF

Flygplatser :

Ankara Esenboğa, Turkiet

latitud: 40-07N, longitud: 032-59E, höjd: 953 m

Aktuellt väderrapport

Denna rapport gjordes för 36 minuter sedan, klockan 15:20 UTC
Vind 10 kt från nord/nordost
Temperatur 3°C
Fuktighet 93%
Tryck 1018 hPa
Sikt 10 km eller mer
Spridda moln på en höjd av 4000 ft
Brutna moln på en höjd av 10000 ft

METAR: LTAC 161520Z 02010KT 9999 SCT040 BKN100 03/02 Q1018 NOSIG

Tid: 18:56 (15:56 UTC)

Väderprognos

Denna rapport gjordes för 5 timmar och 16 minuter sedan, klockan 10:40 UTC
Prognos gäller från 16 kl. 12 UTC till 17 kl. 12 UTC
Vind 2 kt varierande vindriktning
Sikt 10 km eller mer
Spridda moln på en höjd av 3500 ft
Brutna moln på en höjd av 10000 ft
Temporärt
från 17 kl. 02 UTC till 17 kl. 06 UTC
Sikt: 4000 m
Brutna moln på en höjd av 3000 ft
Brutna moln på en höjd av 9000 ft
lätt regn, fuktdis

TAF: LTAC 161040Z 1612/1712 VRB02KT 9999 SCT035 BKN100 TEMPO 1702/1706 4000 -RA BR BKN030 BKN090

Aktuella väderrapporter och prognoser från 4000 flygplatser (METAR- och TAF-rapporter).

De tillgängliga stationerna syns som gula och röda prickar på kartan.

För musen över prickarna för att se namnen på stationerna.

Klicka sedan för att få väderrapporter och prognoser.

För att ändra kartan: Klicka på de gröna knapparna med ett svart kors på för att zooma in; den gröna knappen med ett streck på för att zooma ut; eller på de gröna pilarna för angränsande kartor.


METAR-TAF: